KHTS/HTS METAR and TAF weather

Enter ICAO airport designator
Station Type Date Time Source
KHTS METAR 2019/08/21 02:51 UTC NOAA

KHTS 210251Z 00000KT 10SM CLR 23/18 A3001 RMK AO2 SLP152 T02330178 53001


Station Type Date Time Source
KHTS Decoded METAR 2019/08/21 02:51 UTC NOAA

Station name not available
Aug 20, 2019 - 10:51 PM EDT / 2019.08.21 0251 UTC
Wind: Calm:0
Visibility: 10 mile(s):0
Sky conditions: clear
Temperature: 73.9 F (23.3 C)
Dew Point: 64.0 F (17.8 C)
Relative Humidity: 71%
Pressure (altimeter): 30.01 in. Hg (1016 hPa)
Pressure tendency: 0.00 inches (0.1 hPa) higher than three hours ago
ob: KHTS 210251Z 00000KT 10SM CLR 23/18 A3001 RMK AO2 SLP152 T02330178 53001
cycle: 3

Station Type Date Time Source
KHTS TAF 2019/08/21 03:54 UTC NOAA

TAF
AMD KHTS 210251Z 2103/2124 24004KT P6SM BKN150
FM211000 VRB03KT 5SM BR SCT250
FM211200 23006KT P6SM BKN100
FM212100 26006KT P6SM SCT060

Example: see airport list